sensor_id;sensor_type;location;lat;lon;timestamp;pressure;altitude;pressure_sealevel;temperature;humidity
69239;BME280;56349;51.816;-0.026;2023-07-31T00:02:03;100212.52;;;26.11;34.22
69239;BME280;56349;51.816;-0.026;2023-07-31T00:04:28;100213.13;;;26.32;34.22
69239;BME280;56349;51.816;-0.026;2023-07-31T00:06:55;100216.26;;;26.27;34.27
69239;BME280;56349;51.816;-0.026;2023-07-31T00:09:20;100204.54;;;26.00;34.33
69239;BME280;56349;51.816;-0.026;2023-07-31T00:11:46;100205.08;;;26.01;34.31
69239;BME280;56349;51.816;-0.026;2023-07-31T00:14:11;100197.93;;;26.22;34.32
69239;BME280;56349;51.816;-0.026;2023-07-31T00:16:37;100201.10;;;26.20;34.35
69239;BME280;56349;51.816;-0.026;2023-07-31T00:19:02;100196.40;;;26.18;34.39
69239;BME280;56349;51.816;-0.026;2023-07-31T00:21:27;100201.24;;;26.15;34.40
69239;BME280;56349;51.816;-0.026;2023-07-31T00:23:53;100192.67;;;26.13;34.43
69239;BME280;56349;51.816;-0.026;2023-07-31T00:26:20;100191.18;;;26.11;34.47
69239;BME280;56349;51.816;-0.026;2023-07-31T00:28:46;100188.66;;;26.07;34.49
69239;BME280;56349;51.816;-0.026;2023-07-31T00:31:12;100182.57;;;26.04;34.54
69239;BME280;56349;51.816;-0.026;2023-07-31T00:33:38;100178.51;;;25.79;34.57
69239;BME280;56349;51.816;-0.026;2023-07-31T00:36:04;100176.27;;;25.76;34.60
69239;BME280;56349;51.816;-0.026;2023-07-31T00:38:29;100173.04;;;25.73;34.64
69239;BME280;56349;51.816;-0.026;2023-07-31T00:40:55;100176.61;;;26.19;34.69
69239;BME280;56349;51.816;-0.026;2023-07-31T00:43:21;100169.97;;;25.70;34.70
69239;BME280;56349;51.816;-0.026;2023-07-31T00:45:48;100166.24;;;26.18;34.72
69239;BME280;56349;51.816;-0.026;2023-07-31T00:48:13;100168.62;;;25.68;34.74
69239;BME280;56349;51.816;-0.026;2023-07-31T00:50:39;100158.93;;;26.15;34.75
69239;BME280;56349;51.816;-0.026;2023-07-31T00:53:04;100156.92;;;25.87;34.77
69239;BME280;56349;51.816;-0.026;2023-07-31T00:55:30;100152.81;;;25.87;34.77
69239;BME280;56349;51.816;-0.026;2023-07-31T00:57:55;100158.94;;;25.84;34.82
69239;BME280;56349;51.816;-0.026;2023-07-31T01:00:21;100158.43;;;26.10;34.83
69239;BME280;56349;51.816;-0.026;2023-07-31T01:02:46;100155.28;;;25.84;34.82
69239;BME280;56349;51.816;-0.026;2023-07-31T01:05:12;100148.41;;;26.09;34.84
69239;BME280;56349;51.816;-0.026;2023-07-31T01:07:45;100141.41;;;25.56;34.88
69239;BME280;56349;51.816;-0.026;2023-07-31T01:10:07;100138.76;;;25.75;34.92
69239;BME280;56349;51.816;-0.026;2023-07-31T01:12:30;100136.00;;;25.72;34.96
69239;BME280;56349;51.816;-0.026;2023-07-31T01:15:06;100137.23;;;25.96;34.99
69239;BME280;56349;51.816;-0.026;2023-07-31T01:17:20;100132.66;;;25.68;35.03
69239;BME280;56349;51.816;-0.026;2023-07-31T01:19:46;100127.65;;;25.94;35.05
69239;BME280;56349;51.816;-0.026;2023-07-31T01:22:23;100118.18;;;25.65;35.08
69239;BME280;56349;51.816;-0.026;2023-07-31T01:24:52;100115.37;;;25.64;35.11
69239;BME280;56349;51.816;-0.026;2023-07-31T01:27:08;100113.16;;;25.62;35.17
69239;BME280;56349;51.816;-0.026;2023-07-31T01:29:36;100108.35;;;25.86;35.20
69239;BME280;56349;51.816;-0.026;2023-07-31T01:31:57;100107.12;;;25.55;35.25
69239;BME280;56349;51.816;-0.026;2023-07-31T01:34:22;100104.74;;;25.78;35.30
69239;BME280;56349;51.816;-0.026;2023-07-31T01:36:47;100097.42;;;25.75;35.33
69239;BME280;56349;51.816;-0.026;2023-07-31T01:39:13;100088.83;;;25.46;35.38
69239;BME280;56349;51.816;-0.026;2023-07-31T01:41:39;100087.36;;;25.71;35.40
69239;BME280;56349;51.816;-0.026;2023-07-31T01:44:06;100081.82;;;25.46;35.41
69239;BME280;56349;51.816;-0.026;2023-07-31T01:46:31;100081.35;;;25.73;35.41
69239;BME280;56349;51.816;-0.026;2023-07-31T01:48:57;100071.16;;;25.44;35.44
69239;BME280;56349;51.816;-0.026;2023-07-31T01:51:23;100061.86;;;25.71;35.45
69239;BME280;56349;51.816;-0.026;2023-07-31T01:53:49;100058.76;;;25.71;35.46
69239;BME280;56349;51.816;-0.026;2023-07-31T01:56:15;100062.29;;;25.43;35.46
69239;BME280;56349;51.816;-0.026;2023-07-31T01:58:42;100051.67;;;25.71;35.46
69239;BME280;56349;51.816;-0.026;2023-07-31T02:01:06;100044.95;;;25.70;35.46
69239;BME280;56349;51.816;-0.026;2023-07-31T02:03:32;100045.94;;;25.42;35.47
69239;BME280;56349;51.816;-0.026;2023-07-31T02:05:58;100045.17;;;25.41;35.50
69239;BME280;56349;51.816;-0.026;2023-07-31T02:08:25;100040.34;;;25.66;35.53
69239;BME280;56349;51.816;-0.026;2023-07-31T02:10:51;100040.24;;;25.39;35.52
69239;BME280;56349;51.816;-0.026;2023-07-31T02:13:16;100032.75;;;25.40;35.51
69239;BME280;56349;51.816;-0.026;2023-07-31T02:15:42;100034.05;;;25.37;35.55
69239;BME280;56349;51.816;-0.026;2023-07-31T02:18:09;100025.12;;;25.62;35.58
69239;BME280;56349;51.816;-0.026;2023-07-31T02:20:35;100021.61;;;25.63;35.58
69239;BME280;56349;51.816;-0.026;2023-07-31T02:23:01;100020.88;;;25.59;35.62
69239;BME280;56349;51.816;-0.026;2023-07-31T02:25:26;100019.05;;;25.58;35.63
69239;BME280;56349;51.816;-0.026;2023-07-31T02:27:52;100016.62;;;25.53;35.69
69239;BME280;56349;51.816;-0.026;2023-07-31T02:30:18;100013.62;;;25.52;35.71
69239;BME280;56349;51.816;-0.026;2023-07-31T02:32:43;100009.60;;;25.53;35.73
69239;BME280;56349;51.816;-0.026;2023-07-31T02:35:09;100008.47;;;25.53;35.72
69239;BME280;56349;51.816;-0.026;2023-07-31T02:37:36;100000.98;;;25.24;35.76
69239;BME280;56349;51.816;-0.026;2023-07-31T02:40:01;100003.45;;;25.52;35.77
69239;BME280;56349;51.816;-0.026;2023-07-31T02:42:26;99996.50;;;25.50;35.80
69239;BME280;56349;51.816;-0.026;2023-07-31T02:44:52;99995.58;;;25.24;35.78
69239;BME280;56349;51.816;-0.026;2023-07-31T02:47:19;99993.54;;;25.49;35.84
69239;BME280;56349;51.816;-0.026;2023-07-31T02:49:45;99988.04;;;25.47;35.84
69239;BME280;56349;51.816;-0.026;2023-07-31T02:52:10;99985.46;;;25.46;35.87
69239;BME280;56349;51.816;-0.026;2023-07-31T02:54:36;99983.66;;;25.19;35.86
69239;BME280;56349;51.816;-0.026;2023-07-31T02:57:02;99982.95;;;25.46;35.87
69239;BME280;56349;51.816;-0.026;2023-07-31T02:59:28;99976.19;;;25.20;35.87
69239;BME280;56349;51.816;-0.026;2023-07-31T03:01:53;99979.71;;;25.46;35.87
69239;BME280;56349;51.816;-0.026;2023-07-31T03:04:19;99973.97;;;25.48;35.83
69239;BME280;56349;51.816;-0.026;2023-07-31T03:06:45;99976.51;;;25.18;35.88
69239;BME280;56349;51.816;-0.026;2023-07-31T03:09:11;99973.25;;;25.45;35.85
69239;BME280;56349;51.816;-0.026;2023-07-31T03:11:37;99973.79;;;25.43;35.87
69239;BME280;56349;51.816;-0.026;2023-07-31T03:14:03;99975.61;;;25.40;35.90
69239;BME280;56349;51.816;-0.026;2023-07-31T03:16:29;99982.82;;;25.38;35.93
69239;BME280;56349;51.816;-0.026;2023-07-31T03:18:55;99980.36;;;25.35;35.94
69239;BME280;56349;51.816;-0.026;2023-07-31T03:21:21;99977.41;;;25.33;35.99
69239;BME280;56349;51.816;-0.026;2023-07-31T03:23:47;99974.82;;;25.33;36.02
69239;BME280;56349;51.816;-0.026;2023-07-31T03:26:13;99970.90;;;25.06;36.00
69239;BME280;56349;51.816;-0.026;2023-07-31T03:28:39;99968.60;;;25.54;36.01
69239;BME280;56349;51.816;-0.026;2023-07-31T03:31:05;99964.45;;;25.29;36.11
69239;BME280;56349;51.816;-0.026;2023-07-31T03:33:31;99960.24;;;25.32;36.13
69239;BME280;56349;51.816;-0.026;2023-07-31T03:35:57;99960.79;;;25.37;36.16
69239;BME280;56349;51.816;-0.026;2023-07-31T03:38:23;99964.18;;;25.47;36.11
69239;BME280;56349;51.816;-0.026;2023-07-31T03:40:49;99959.56;;;25.64;36.02
69239;BME280;56349;51.816;-0.026;2023-07-31T03:43:16;99961.21;;;25.83;35.82
69239;BME280;56349;51.816;-0.026;2023-07-31T03:45:42;99962.61;;;25.80;35.58
69239;BME280;56349;51.816;-0.026;2023-07-31T03:48:08;99960.29;;;25.77;35.35
69239;BME280;56349;51.816;-0.026;2023-07-31T03:50:34;99958.20;;;25.94;35.07
69239;BME280;56349;51.816;-0.026;2023-07-31T03:53:00;99955.26;;;26.09;34.84
69239;BME280;56349;51.816;-0.026;2023-07-31T03:55:26;99955.97;;;26.17;34.65
69239;BME280;56349;51.816;-0.026;2023-07-31T03:57:52;99955.41;;;26.18;34.53
69239;BME280;56349;51.816;-0.026;2023-07-31T04:00:19;99950.87;;;26.19;34.46
69239;BME280;56349;51.816;-0.026;2023-07-31T04:02:43;99949.70;;;26.18;34.41
69239;BME280;56349;51.816;-0.026;2023-07-31T04:05:09;99953.68;;;26.16;34.35
69239;BME280;56349;51.816;-0.026;2023-07-31T04:07:35;99955.87;;;26.11;34.36
69239;BME280;56349;51.816;-0.026;2023-07-31T04:10:01;99960.02;;;26.05;34.36
69239;BME280;56349;51.816;-0.026;2023-07-31T04:12:27;99959.14;;;25.99;34.36
69239;BME280;56349;51.816;-0.026;2023-07-31T04:14:53;99956.46;;;26.17;34.37
69239;BME280;56349;51.816;-0.026;2023-07-31T04:17:18;99962.63;;;26.11;34.36
69239;BME280;56349;51.816;-0.026;2023-07-31T04:19:43;99954.69;;;26.06;34.40
69239;BME280;56349;51.816;-0.026;2023-07-31T04:22:09;99945.82;;;25.98;34.45
69239;BME280;56349;51.816;-0.026;2023-07-31T04:24:34;99950.58;;;25.94;34.49
69239;BME280;56349;51.816;-0.026;2023-07-31T04:27:00;99947.69;;;25.65;34.54
69239;BME280;56349;51.816;-0.026;2023-07-31T04:29:26;99944.09;;;25.79;34.60
69239;BME280;56349;51.816;-0.026;2023-07-31T04:31:52;99943.57;;;25.99;34.65
69239;BME280;56349;51.816;-0.026;2023-07-31T04:34:18;99944.53;;;25.69;34.66
69239;BME280;56349;51.816;-0.026;2023-07-31T04:36:44;99939.09;;;25.64;34.69
69239;BME280;56349;51.816;-0.026;2023-07-31T04:39:10;99938.93;;;25.60;34.73
69239;BME280;56349;51.816;-0.026;2023-07-31T04:41:36;99936.91;;;25.54;34.76
69239;BME280;56349;51.816;-0.026;2023-07-31T04:44:02;99938.62;;;25.52;34.77
69239;BME280;56349;51.816;-0.026;2023-07-31T04:46:28;99939.05;;;25.77;34.77
69239;BME280;56349;51.816;-0.026;2023-07-31T04:48:53;99932.21;;;25.48;34.79
69239;BME280;56349;51.816;-0.026;2023-07-31T04:51:19;99930.78;;;25.48;34.79
69239;BME280;56349;51.816;-0.026;2023-07-31T04:53:45;99929.84;;;25.72;34.75
69239;BME280;56349;51.816;-0.026;2023-07-31T04:56:11;99925.08;;;25.43;34.79
69239;BME280;56349;51.816;-0.026;2023-07-31T04:58:37;99927.57;;;25.65;34.86
69239;BME280;56349;51.816;-0.026;2023-07-31T05:01:03;99926.61;;;25.34;34.87
69239;BME280;56349;51.816;-0.026;2023-07-31T05:03:29;99926.91;;;25.32;34.89
69239;BME280;56349;51.816;-0.026;2023-07-31T05:05:55;99926.98;;;25.32;34.90
69239;BME280;56349;51.816;-0.026;2023-07-31T05:08:21;99928.30;;;25.54;34.93
69239;BME280;56349;51.816;-0.026;2023-07-31T05:10:47;99931.34;;;25.50;34.96
69239;BME280;56349;51.816;-0.026;2023-07-31T05:13:13;99938.01;;;25.47;34.97
69239;BME280;56349;51.816;-0.026;2023-07-31T05:15:41;99935.32;;;25.42;35.02
69239;BME280;56349;51.816;-0.026;2023-07-31T05:18:04;99935.58;;;25.38;35.08
69239;BME280;56349;51.816;-0.026;2023-07-31T05:20:30;99934.33;;;25.36;35.09
69239;BME280;56349;51.816;-0.026;2023-07-31T05:22:57;99934.20;;;25.37;35.07
69239;BME280;56349;51.816;-0.026;2023-07-31T05:25:23;99933.13;;;25.37;35.07
69239;BME280;56349;51.816;-0.026;2023-07-31T05:27:49;99937.04;;;25.37;35.06
69239;BME280;56349;51.816;-0.026;2023-07-31T05:30:15;99929.28;;;25.36;35.07
69239;BME280;56349;51.816;-0.026;2023-07-31T05:32:41;99929.53;;;25.33;35.11
69239;BME280;56349;51.816;-0.026;2023-07-31T05:35:07;99926.63;;;25.32;35.11
69239;BME280;56349;51.816;-0.026;2023-07-31T05:37:32;99934.44;;;25.28;35.15
69239;BME280;56349;51.816;-0.026;2023-07-31T05:39:58;99927.59;;;25.24;35.19
69239;BME280;56349;51.816;-0.026;2023-07-31T05:42:24;99932.50;;;25.66;35.21
69239;BME280;56349;51.816;-0.026;2023-07-31T05:44:50;99932.14;;;25.25;35.16
69239;BME280;56349;51.816;-0.026;2023-07-31T05:47:15;99934.87;;;25.24;35.17
69239;BME280;56349;51.816;-0.026;2023-07-31T05:49:40;99935.60;;;25.24;35.17
69239;BME280;56349;51.816;-0.026;2023-07-31T05:52:07;99934.64;;;25.23;35.19
69239;BME280;56349;51.816;-0.026;2023-07-31T05:54:32;99938.73;;;25.22;35.20
69239;BME280;56349;51.816;-0.026;2023-07-31T05:56:57;99940.54;;;25.20;35.21
69239;BME280;56349;51.816;-0.026;2023-07-31T05:59:23;99935.16;;;25.19;35.22
69239;BME280;56349;51.816;-0.026;2023-07-31T06:01:49;99935.12;;;25.19;35.21
69239;BME280;56349;51.816;-0.026;2023-07-31T06:04:15;99940.29;;;25.18;35.21
69239;BME280;56349;51.816;-0.026;2023-07-31T06:06:41;99942.48;;;25.14;35.23
69239;BME280;56349;51.816;-0.026;2023-07-31T06:09:07;99936.51;;;25.35;35.23
69239;BME280;56349;51.816;-0.026;2023-07-31T06:11:34;99919.34;;;25.12;35.25
69239;BME280;56349;51.816;-0.026;2023-07-31T06:13:59;99928.64;;;25.11;35.26
69239;BME280;56349;51.816;-0.026;2023-07-31T06:16:25;99928.58;;;25.09;35.27
69239;BME280;56349;51.816;-0.026;2023-07-31T06:18:50;99929.49;;;25.09;35.28
69239;BME280;56349;51.816;-0.026;2023-07-31T06:21:16;99927.49;;;25.09;35.27
69239;BME280;56349;51.816;-0.026;2023-07-31T06:23:41;99925.14;;;25.33;35.26
69239;BME280;56349;51.816;-0.026;2023-07-31T06:26:07;99923.54;;;25.35;35.24
69239;BME280;56349;51.816;-0.026;2023-07-31T06:28:34;99924.60;;;25.15;35.28
69239;BME280;56349;51.816;-0.026;2023-07-31T06:30:59;99926.64;;;25.19;35.41
69239;BME280;56349;51.816;-0.026;2023-07-31T06:33:25;99931.26;;;24.96;35.58
69239;BME280;56349;51.816;-0.026;2023-07-31T06:35:51;99931.79;;;25.28;35.75
69239;BME280;56349;51.816;-0.026;2023-07-31T06:38:18;99928.19;;;25.07;36.06
69239;BME280;56349;51.816;-0.026;2023-07-31T06:40:42;99930.34;;;25.36;36.51
69239;BME280;56349;51.816;-0.026;2023-07-31T06:43:08;99925.89;;;25.43;36.84
69239;BME280;56349;51.816;-0.026;2023-07-31T06:45:34;99924.61;;;25.55;36.94
69239;BME280;56349;51.816;-0.026;2023-07-31T06:47:59;99922.94;;;25.42;37.07
69239;BME280;56349;51.816;-0.026;2023-07-31T06:50:24;99930.31;;;25.57;37.27
69239;BME280;56349;51.816;-0.026;2023-07-31T06:52:50;99925.88;;;25.77;37.22
69239;BME280;56349;51.816;-0.026;2023-07-31T06:55:18;99915.92;;;25.57;37.10
69239;BME280;56349;51.816;-0.026;2023-07-31T06:57:42;99911.28;;;26.06;36.99
69239;BME280;56349;51.816;-0.026;2023-07-31T07:00:09;99905.19;;;26.13;36.85
69239;BME280;56349;51.816;-0.026;2023-07-31T07:02:34;99904.99;;;26.46;36.70
69239;BME280;56349;51.816;-0.026;2023-07-31T07:05:00;99902.81;;;26.54;36.37
69239;BME280;56349;51.816;-0.026;2023-07-31T07:07:26;99897.95;;;26.87;36.14
69239;BME280;56349;51.816;-0.026;2023-07-31T07:09:52;99909.26;;;27.15;35.88
69239;BME280;56349;51.816;-0.026;2023-07-31T07:12:18;99892.77;;;27.24;35.56
69239;BME280;56349;51.816;-0.026;2023-07-31T07:14:45;99897.01;;;27.53;35.21
69239;BME280;56349;51.816;-0.026;2023-07-31T07:17:09;99895.48;;;27.81;34.82
69239;BME280;56349;51.816;-0.026;2023-07-31T07:19:35;99891.01;;;27.79;34.47
69239;BME280;56349;51.816;-0.026;2023-07-31T07:22:01;99888.04;;;27.61;34.12
69239;BME280;56349;51.816;-0.026;2023-07-31T07:24:28;99885.99;;;27.88;33.76
69239;BME280;56349;51.816;-0.026;2023-07-31T07:26:53;99882.09;;;28.32;33.43
69239;BME280;56349;51.816;-0.026;2023-07-31T07:29:19;99878.82;;;28.31;33.12
69239;BME280;56349;51.816;-0.026;2023-07-31T07:31:45;99879.95;;;28.48;32.87
69239;BME280;56349;51.816;-0.026;2023-07-31T07:34:11;99877.48;;;28.68;32.59
69239;BME280;56349;51.816;-0.026;2023-07-31T07:36:37;99866.88;;;28.61;32.31
69239;BME280;56349;51.816;-0.026;2023-07-31T07:39:03;99872.92;;;28.76;32.07
69239;BME280;56349;51.816;-0.026;2023-07-31T07:41:29;99873.87;;;29.21;31.79
69239;BME280;56349;51.816;-0.026;2023-07-31T07:43:55;99869.49;;;29.08;31.51
69239;BME280;56349;51.816;-0.026;2023-07-31T07:46:21;99872.72;;;29.11;31.32
69239;BME280;56349;51.816;-0.026;2023-07-31T07:48:47;99874.71;;;29.37;31.14
69239;BME280;56349;51.816;-0.026;2023-07-31T07:51:13;99872.37;;;29.02;31.02
69239;BME280;56349;51.816;-0.026;2023-07-31T07:53:39;99871.18;;;29.17;30.98
69239;BME280;56349;51.816;-0.026;2023-07-31T07:56:05;99862.05;;;29.00;31.02
69239;BME280;56349;51.816;-0.026;2023-07-31T07:58:31;99855.14;;;28.81;31.08
69239;BME280;56349;51.816;-0.026;2023-07-31T08:00:57;99861.75;;;28.64;31.10
69239;BME280;56349;51.816;-0.026;2023-07-31T08:03:23;99874.85;;;28.42;31.25
69239;BME280;56349;51.816;-0.026;2023-07-31T08:05:48;99867.67;;;28.23;31.34
69239;BME280;56349;51.816;-0.026;2023-07-31T08:08:15;99855.47;;;28.45;31.53
69239;BME280;56349;51.816;-0.026;2023-07-31T08:10:40;99842.88;;;28.51;31.70
69239;BME280;56349;51.816;-0.026;2023-07-31T08:13:06;99833.98;;;28.32;32.05
69239;BME280;56349;51.816;-0.026;2023-07-31T08:15:31;99834.76;;;27.66;32.31
69239;BME280;56349;51.816;-0.026;2023-07-31T08:17:58;99836.87;;;27.71;32.41
69239;BME280;56349;51.816;-0.026;2023-07-31T08:20:24;99844.21;;;27.57;32.49
69239;BME280;56349;51.816;-0.026;2023-07-31T08:22:50;99843.59;;;27.70;32.61
69239;BME280;56349;51.816;-0.026;2023-07-31T08:25:16;99835.21;;;27.57;32.77
69239;BME280;56349;51.816;-0.026;2023-07-31T08:27:45;99850.74;;;27.66;32.98
69239;BME280;56349;51.816;-0.026;2023-07-31T08:30:16;99865.29;;;27.33;33.15
69239;BME280;56349;51.816;-0.026;2023-07-31T08:32:31;99860.67;;;27.45;33.32
69239;BME280;56349;51.816;-0.026;2023-07-31T08:34:57;99864.22;;;27.35;33.50
69239;BME280;56349;51.816;-0.026;2023-07-31T08:37:23;99875.19;;;27.27;33.68
69239;BME280;56349;51.816;-0.026;2023-07-31T08:39:49;99873.15;;;27.19;33.86
69239;BME280;56349;51.816;-0.026;2023-07-31T08:42:15;99858.63;;;27.13;34.09
69239;BME280;56349;51.816;-0.026;2023-07-31T08:44:43;99848.65;;;27.09;34.22
69239;BME280;56349;51.816;-0.026;2023-07-31T08:47:07;99836.21;;;27.03;34.30
69239;BME280;56349;51.816;-0.026;2023-07-31T08:49:34;99836.44;;;26.97;34.45
69239;BME280;56349;51.816;-0.026;2023-07-31T08:51:58;99828.38;;;26.88;34.57
69239;BME280;56349;51.816;-0.026;2023-07-31T08:54:24;99821.05;;;26.88;34.76
69239;BME280;56349;51.816;-0.026;2023-07-31T08:56:50;99829.55;;;26.88;34.94
69239;BME280;56349;51.816;-0.026;2023-07-31T08:59:17;99842.67;;;26.96;35.14
69239;BME280;56349;51.816;-0.026;2023-07-31T09:01:44;99841.25;;;27.08;35.18
69239;BME280;56349;51.816;-0.026;2023-07-31T09:04:08;99852.62;;;27.04;35.05
69239;BME280;56349;51.816;-0.026;2023-07-31T09:06:33;99855.19;;;27.48;34.96
69239;BME280;56349;51.816;-0.026;2023-07-31T09:08:58;99848.90;;;27.48;34.87
69239;BME280;56349;51.816;-0.026;2023-07-31T09:11:25;99854.01;;;27.95;34.75
69239;BME280;56349;51.816;-0.026;2023-07-31T09:13:50;99851.02;;;27.98;34.46
69239;BME280;56349;51.816;-0.026;2023-07-31T09:16:15;99845.55;;;27.95;34.21
69239;BME280;56349;51.816;-0.026;2023-07-31T09:21:07;99834.23;;;28.36;33.76
69239;BME280;56349;51.816;-0.026;2023-07-31T09:23:40;99833.11;;;28.14;33.47
69239;BME280;56349;51.816;-0.026;2023-07-31T09:25:58;99834.82;;;28.60;33.21
69239;BME280;56349;51.816;-0.026;2023-07-31T09:28:30;99832.12;;;28.32;32.98
69239;BME280;56349;51.816;-0.026;2023-07-31T09:30:51;99826.01;;;28.51;32.71
69239;BME280;56349;51.816;-0.026;2023-07-31T09:33:16;99824.75;;;28.98;32.52
69239;BME280;56349;51.816;-0.026;2023-07-31T09:35:41;99819.29;;;29.20;32.10
69239;BME280;56349;51.816;-0.026;2023-07-31T09:38:08;99807.78;;;29.08;31.87
69239;BME280;56349;51.816;-0.026;2023-07-31T09:40:33;99800.95;;;29.23;31.64
69239;BME280;56349;51.816;-0.026;2023-07-31T09:42:59;99799.74;;;29.40;31.38
69239;BME280;56349;51.816;-0.026;2023-07-31T09:45:23;99794.98;;;29.54;31.18
69239;BME280;56349;51.816;-0.026;2023-07-31T09:47:48;99791.21;;;29.46;30.96
69239;BME280;56349;51.816;-0.026;2023-07-31T09:50:14;99781.82;;;29.58;30.78
69239;BME280;56349;51.816;-0.026;2023-07-31T09:52:39;99791.26;;;29.90;30.63
69239;BME280;56349;51.816;-0.026;2023-07-31T09:55:06;99787.64;;;30.00;30.45
69239;BME280;56349;51.816;-0.026;2023-07-31T09:57:31;99779.83;;;29.84;30.34
69239;BME280;56349;51.816;-0.026;2023-07-31T10:00:00;99782.06;;;29.89;30.23
69239;BME280;56349;51.816;-0.026;2023-07-31T10:02:23;99790.66;;;29.98;30.08
69239;BME280;56349;51.816;-0.026;2023-07-31T10:04:50;99794.53;;;30.06;29.96
69239;BME280;56349;51.816;-0.026;2023-07-31T10:07:14;99790.30;;;30.13;29.83
69239;BME280;56349;51.816;-0.026;2023-07-31T10:09:39;99790.38;;;30.21;29.72
69239;BME280;56349;51.816;-0.026;2023-07-31T10:12:08;99791.91;;;30.25;29.63
69239;BME280;56349;51.816;-0.026;2023-07-31T10:14:30;99793.19;;;30.28;29.56
69239;BME280;56349;51.816;-0.026;2023-07-31T10:16:56;99806.57;;;30.36;29.43
69239;BME280;56349;51.816;-0.026;2023-07-31T10:19:21;99816.69;;;30.34;29.41
69239;BME280;56349;51.816;-0.026;2023-07-31T10:21:46;99808.33;;;30.41;29.31
69239;BME280;56349;51.816;-0.026;2023-07-31T10:24:12;99807.53;;;30.41;29.25
69239;BME280;56349;51.816;-0.026;2023-07-31T10:26:38;99809.16;;;30.44;29.17
69239;BME280;56349;51.816;-0.026;2023-07-31T10:29:03;99798.96;;;30.44;29.15
69239;BME280;56349;51.816;-0.026;2023-07-31T10:31:28;99794.19;;;30.46;29.08
69239;BME280;56349;51.816;-0.026;2023-07-31T10:33:54;99796.58;;;30.51;29.00
69239;BME280;56349;51.816;-0.026;2023-07-31T10:36:20;99802.28;;;30.24;28.99
69239;BME280;56349;51.816;-0.026;2023-07-31T10:38:45;99805.32;;;30.28;28.91
69239;BME280;56349;51.816;-0.026;2023-07-31T10:41:11;99802.08;;;30.68;28.73
69239;BME280;56349;51.816;-0.026;2023-07-31T10:43:36;99802.16;;;30.75;28.62
69239;BME280;56349;51.816;-0.026;2023-07-31T10:46:06;99813.79;;;30.52;28.53
69239;BME280;56349;51.816;-0.026;2023-07-31T10:48:33;99819.03;;;30.51;28.55
69239;BME280;56349;51.816;-0.026;2023-07-31T10:50:56;99834.03;;;30.51;28.53
69239;BME280;56349;51.816;-0.026;2023-07-31T10:53:23;99835.06;;;30.49;28.47
69239;BME280;56349;51.816;-0.026;2023-07-31T10:55:44;99824.57;;;30.88;28.47
69239;BME280;56349;51.816;-0.026;2023-07-31T10:58:11;99820.41;;;30.67;28.45
69239;BME280;56349;51.816;-0.026;2023-07-31T11:00:37;99820.03;;;30.99;28.42
69239;BME280;56349;51.816;-0.026;2023-07-31T11:03:03;99815.06;;;31.07;28.36
69239;BME280;56349;51.816;-0.026;2023-07-31T11:07:56;99805.33;;;31.23;28.46
69239;BME280;56349;51.816;-0.026;2023-07-31T11:10:19;99792.79;;;30.81;28.44
69239;BME280;56349;51.816;-0.026;2023-07-31T11:12:45;99778.57;;;30.92;28.40
69239;BME280;56349;51.816;-0.026;2023-07-31T11:15:10;99775.92;;;30.98;28.40
69239;BME280;56349;51.816;-0.026;2023-07-31T11:17:38;99763.41;;;31.05;28.36
69239;BME280;56349;51.816;-0.026;2023-07-31T11:20:01;99756.15;;;31.09;28.34
69239;BME280;56349;51.816;-0.026;2023-07-31T11:22:27;99755.88;;;31.64;28.30
69239;BME280;56349;51.816;-0.026;2023-07-31T11:24:53;99771.74;;;31.70;28.28
69239;BME280;56349;51.816;-0.026;2023-07-31T11:27:19;99776.47;;;31.50;28.25
69239;BME280;56349;51.816;-0.026;2023-07-31T11:29:44;99787.10;;;31.34;28.18
69239;BME280;56349;51.816;-0.026;2023-07-31T11:32:15;99802.51;;;31.56;28.16
69239;BME280;56349;51.816;-0.026;2023-07-31T11:37:01;99787.51;;;31.85;28.15
69239;BME280;56349;51.816;-0.026;2023-07-31T11:39:27;99785.43;;;31.38;28.10
69239;BME280;56349;51.816;-0.026;2023-07-31T11:41:58;99788.60;;;31.38;28.09
69239;BME280;56349;51.816;-0.026;2023-07-31T11:44:18;99782.05;;;31.39;28.06
69239;BME280;56349;51.816;-0.026;2023-07-31T11:46:44;99773.84;;;31.42;28.03
69239;BME280;56349;51.816;-0.026;2023-07-31T11:49:11;99761.47;;;31.42;27.97
69239;BME280;56349;51.816;-0.026;2023-07-31T11:51:37;99765.67;;;31.34;27.94
69239;BME280;56349;51.816;-0.026;2023-07-31T11:54:03;99766.80;;;31.18;27.96
69239;BME280;56349;51.816;-0.026;2023-07-31T11:56:29;99768.90;;;31.12;28.11
69239;BME280;56349;51.816;-0.026;2023-07-31T11:59:02;99776.82;;;31.05;28.30
69239;BME280;56349;51.816;-0.026;2023-07-31T12:01:21;99775.96;;;30.70;28.57
69239;BME280;56349;51.816;-0.026;2023-07-31T12:03:46;99783.91;;;30.41;28.80
69239;BME280;56349;51.816;-0.026;2023-07-31T12:06:11;99785.39;;;30.38;29.13
69239;BME280;56349;51.816;-0.026;2023-07-31T12:08:37;99789.28;;;30.47;29.42
69239;BME280;56349;51.816;-0.026;2023-07-31T12:11:05;99797.47;;;30.11;29.56
69239;BME280;56349;51.816;-0.026;2023-07-31T12:13:30;99794.45;;;30.34;29.73
69239;BME280;56349;51.816;-0.026;2023-07-31T12:15:55;99796.66;;;29.90;29.83
69239;BME280;56349;51.816;-0.026;2023-07-31T12:18:20;99799.43;;;30.14;29.94
69239;BME280;56349;51.816;-0.026;2023-07-31T12:20:47;99792.19;;;30.21;30.01
69239;BME280;56349;51.816;-0.026;2023-07-31T12:23:15;99778.81;;;30.13;29.95
69239;BME280;56349;51.816;-0.026;2023-07-31T12:25:37;99779.15;;;30.48;29.91
69239;BME280;56349;51.816;-0.026;2023-07-31T12:28:05;99776.31;;;30.52;29.93
69239;BME280;56349;51.816;-0.026;2023-07-31T12:30:31;99755.58;;;30.35;29.91
69239;BME280;56349;51.816;-0.026;2023-07-31T12:32:54;99746.84;;;30.50;29.78
69239;BME280;56349;51.816;-0.026;2023-07-31T12:35:20;99754.24;;;30.52;29.79
69239;BME280;56349;51.816;-0.026;2023-07-31T12:37:46;99757.94;;;30.61;29.73
69239;BME280;56349;51.816;-0.026;2023-07-31T12:40:12;99763.43;;;30.70;29.66
69239;BME280;56349;51.816;-0.026;2023-07-31T12:42:38;99765.95;;;30.53;29.58
69239;BME280;56349;51.816;-0.026;2023-07-31T12:45:05;99761.24;;;30.89;29.47
69239;BME280;56349;51.816;-0.026;2023-07-31T12:47:30;99765.35;;;30.96;29.34